createdAt,value
2023-07-04T00:00:17.244Z,10.50
2023-07-04T00:03:41.916Z,9.90
2023-07-04T00:06:45.190Z,9.10
2023-07-04T00:09:48.378Z,9.20
2023-07-04T00:12:51.302Z,9.70
2023-07-04T00:15:57.280Z,9.10
2023-07-04T00:19:00.380Z,8.90
2023-07-04T00:22:05.379Z,8.90
2023-07-04T00:25:09.139Z,8.30
2023-07-04T00:28:12.056Z,8.50
2023-07-04T00:31:21.364Z,9.00
2023-07-04T00:34:25.039Z,9.30
2023-07-04T00:37:30.428Z,8.90
2023-07-04T00:40:33.448Z,8.20
2023-07-04T00:43:47.979Z,8.60
2023-07-04T00:46:57.821Z,8.00
2023-07-04T00:50:08.722Z,8.90
2023-07-04T00:53:13.924Z,8.40
2023-07-04T00:56:17.308Z,8.20
2023-07-04T00:59:21.520Z,8.90
2023-07-04T01:02:27.514Z,9.70
2023-07-04T01:05:51.663Z,8.70
2023-07-04T01:09:02.495Z,8.80
2023-07-04T01:12:06.618Z,8.80
2023-07-04T01:15:10.648Z,8.80
2023-07-04T01:18:15.456Z,9.10
2023-07-04T01:21:23.528Z,8.70
2023-07-04T01:24:40.383Z,9.60
2023-07-04T01:27:45.222Z,8.90
2023-07-04T01:30:49.023Z,8.20
2023-07-04T01:33:53.276Z,9.90
2023-07-04T01:36:56.415Z,9.10
2023-07-04T01:40:01.560Z,9.00
2023-07-04T01:43:07.171Z,8.80
2023-07-04T01:46:10.616Z,9.60
2023-07-04T01:49:14.002Z,9.90
2023-07-04T01:52:17.027Z,8.60
2023-07-04T01:55:20.227Z,9.90
2023-07-04T01:58:23.267Z,9.50
2023-07-04T02:01:26.408Z,9.40
2023-07-04T02:04:29.415Z,10.40
2023-07-04T02:07:32.750Z,10.40
2023-07-04T02:10:35.872Z,10.60
2023-07-04T02:13:39.782Z,10.10
2023-07-04T02:16:42.795Z,10.30
2023-07-04T02:19:46.039Z,10.10
2023-07-04T02:22:49.069Z,9.90
2023-07-04T02:25:54.227Z,10.40
2023-07-04T02:28:57.140Z,10.00
2023-07-04T02:32:00.115Z,9.90
2023-07-04T02:35:03.895Z,9.70
2023-07-04T02:38:07.263Z,9.60
2023-07-04T02:41:11.237Z,10.40
2023-07-04T02:44:14.324Z,10.00
2023-07-04T02:47:19.615Z,9.90
2023-07-04T02:50:22.921Z,10.90
2023-07-04T02:53:26.037Z,10.00
2023-07-04T02:56:29.739Z,10.90
2023-07-04T02:59:32.823Z,10.80
2023-07-04T03:02:36.783Z,11.20
2023-07-04T03:05:48.646Z,10.50
2023-07-04T03:08:53.084Z,10.20
2023-07-04T03:11:56.479Z,10.60
2023-07-04T03:14:59.862Z,10.60
2023-07-04T03:18:06.193Z,10.40
2023-07-04T03:21:12.226Z,11.00
2023-07-04T03:24:15.265Z,11.60
2023-07-04T03:27:18.382Z,10.40
2023-07-04T03:30:21.613Z,10.80
2023-07-04T03:33:26.644Z,10.80
2023-07-04T03:36:29.734Z,11.20
2023-07-04T03:39:32.696Z,10.90
2023-07-04T03:42:37.265Z,10.90
2023-07-04T03:45:40.287Z,10.40
2023-07-04T03:48:44.187Z,10.40
2023-07-04T03:51:48.014Z,9.90
2023-07-04T03:54:51.274Z,10.10
2023-07-04T03:57:54.243Z,10.10
2023-07-04T04:00:57.215Z,9.80
2023-07-04T04:04:00.308Z,10.00
2023-07-04T04:07:03.771Z,9.70
2023-07-04T04:10:07.458Z,9.90
2023-07-04T04:13:11.280Z,10.00
2023-07-04T04:16:14.463Z,10.00
2023-07-04T04:19:17.537Z,10.70
2023-07-04T04:22:20.550Z,10.50
2023-07-04T04:25:23.494Z,10.50
2023-07-04T04:28:26.402Z,10.00
2023-07-04T04:31:30.240Z,9.90
2023-07-04T04:34:33.287Z,10.70
2023-07-04T04:37:36.485Z,10.80
2023-07-04T04:40:39.850Z,10.80
2023-07-04T04:43:42.828Z,10.40
2023-07-04T04:46:50.085Z,9.90
2023-07-04T04:49:53.195Z,10.70
2023-07-04T04:52:57.256Z,9.90
2023-07-04T04:56:01.632Z,10.90
2023-07-04T04:59:04.544Z,10.80
2023-07-04T05:02:07.765Z,12.10
2023-07-04T05:05:10.823Z,15.60
2023-07-04T05:08:13.977Z,15.70
2023-07-04T05:11:17.947Z,19.10
2023-07-04T05:14:21.417Z,18.70
2023-07-04T05:17:25.334Z,17.60
2023-07-04T05:20:28.588Z,14.80
2023-07-04T05:23:32.699Z,13.60
2023-07-04T05:26:36.436Z,12.20
2023-07-04T05:29:40.064Z,10.80
2023-07-04T05:32:45.972Z,10.40
2023-07-04T05:35:49.412Z,10.20
2023-07-04T05:39:02.310Z,8.80
2023-07-04T05:42:08.198Z,8.00
2023-07-04T05:45:11.436Z,7.60
2023-07-04T05:48:14.511Z,8.40
2023-07-04T05:51:19.894Z,8.10
2023-07-04T05:54:22.872Z,7.60
2023-07-04T05:57:31.649Z,7.40
2023-07-04T06:00:36.145Z,7.80
2023-07-04T06:03:40.565Z,7.30
2023-07-04T06:06:49.668Z,7.50
2023-07-04T06:09:52.683Z,7.80
2023-07-04T06:12:55.658Z,6.40
2023-07-04T06:16:00.405Z,7.00
2023-07-04T06:19:03.759Z,7.00
2023-07-04T06:22:08.531Z,6.80
2023-07-04T06:25:11.433Z,6.90
2023-07-04T06:28:14.413Z,6.40
2023-07-04T06:31:18.465Z,5.60
2023-07-04T06:34:21.485Z,5.80
2023-07-04T06:37:24.451Z,6.20
2023-07-04T06:40:27.440Z,6.50
2023-07-04T06:43:32.829Z,6.20
2023-07-04T06:46:35.837Z,6.70
2023-07-04T06:49:38.842Z,5.80
2023-07-04T06:52:41.783Z,5.60
2023-07-04T06:55:44.958Z,6.40
2023-07-04T06:58:51.737Z,5.90
2023-07-04T07:01:54.985Z,6.30
2023-07-04T07:04:58.146Z,5.70
2023-07-04T07:08:01.128Z,6.30
2023-07-04T07:11:11.229Z,6.40
2023-07-04T07:14:14.382Z,6.00
2023-07-04T07:17:17.745Z,5.90
2023-07-04T07:20:20.785Z,7.40
2023-07-04T07:23:23.807Z,7.20
2023-07-04T07:26:29.542Z,6.70
2023-07-04T07:29:33.358Z,6.50
2023-07-04T07:32:36.480Z,7.20
2023-07-04T07:35:39.686Z,6.20
2023-07-04T07:38:43.136Z,6.80
2023-07-04T07:41:48.739Z,5.80
2023-07-04T07:44:51.871Z,5.40
2023-07-04T07:47:57.293Z,5.60
2023-07-04T07:51:00.556Z,5.10
2023-07-04T07:54:04.185Z,4.60
2023-07-04T07:57:07.880Z,5.00
2023-07-04T08:00:13.583Z,4.70
2023-07-04T08:03:16.720Z,4.80
2023-07-04T08:06:36.966Z,4.90
2023-07-04T08:09:40.200Z,4.60
2023-07-04T08:12:43.305Z,4.60
2023-07-04T08:15:56.130Z,4.40
2023-07-04T08:19:00.766Z,3.70
2023-07-04T08:22:03.918Z,3.70
2023-07-04T08:25:07.145Z,4.10
2023-07-04T08:28:10.243Z,4.80
2023-07-04T08:31:13.591Z,3.80
2023-07-04T08:34:16.750Z,3.50
2023-07-04T08:37:20.090Z,3.20
2023-07-04T08:40:30.528Z,3.20
2023-07-04T08:43:46.316Z,3.30
2023-07-04T08:46:54.637Z,3.50
2023-07-04T08:50:11.019Z,3.00
2023-07-04T08:53:24.017Z,3.10
2023-07-04T08:56:37.535Z,2.90
2023-07-04T08:59:48.166Z,2.60
2023-07-04T09:03:14.191Z,2.50
2023-07-04T09:06:31.880Z,2.60
2023-07-04T09:09:55.666Z,2.70
2023-07-04T09:13:01.416Z,2.60
2023-07-04T09:16:19.773Z,2.80
2023-07-04T09:19:23.082Z,3.20
2023-07-04T09:22:26.213Z,3.00
2023-07-04T09:25:29.746Z,4.80
2023-07-04T09:28:37.686Z,4.50
2023-07-04T09:31:42.558Z,5.20
2023-07-04T09:35:12.471Z,4.30
2023-07-04T09:38:15.799Z,5.90
2023-07-04T09:41:19.832Z,5.20
2023-07-04T09:44:37.428Z,5.60
2023-07-04T09:47:46.093Z,5.50
2023-07-04T09:50:49.174Z,5.10
2023-07-04T09:54:08.696Z,5.20
2023-07-04T09:57:24.113Z,5.40
2023-07-04T10:00:28.015Z,5.00
2023-07-04T10:03:31.213Z,5.10
2023-07-04T10:06:36.524Z,5.00
2023-07-04T10:09:57.511Z,5.10
2023-07-04T10:13:01.122Z,3.90
2023-07-04T10:16:19.443Z,5.40
2023-07-04T10:19:24.026Z,4.60
2023-07-04T10:22:36.442Z,4.70
2023-07-04T10:25:39.647Z,4.70
2023-07-04T10:28:44.116Z,4.40
2023-07-04T10:31:49.207Z,4.50
2023-07-04T10:34:53.388Z,5.10
2023-07-04T10:38:04.582Z,4.20
2023-07-04T10:41:36.103Z,4.00
2023-07-04T10:44:42.374Z,3.30
2023-07-04T10:47:48.904Z,3.60
2023-07-04T10:51:02.082Z,3.80
2023-07-04T10:54:09.183Z,4.20
2023-07-04T10:57:57.828Z,3.30
2023-07-04T11:01:08.477Z,3.30
2023-07-04T11:04:26.499Z,3.10
2023-07-04T11:07:30.130Z,2.80
2023-07-04T11:10:39.330Z,2.70
2023-07-04T11:13:54.016Z,2.60
2023-07-04T11:17:05.247Z,2.80
2023-07-04T11:20:16.188Z,2.40
2023-07-04T11:23:22.169Z,2.70
2023-07-04T11:26:51.308Z,2.40
2023-07-04T11:29:59.820Z,2.20
2023-07-04T11:33:03.420Z,1.80
2023-07-04T11:36:15.591Z,1.70
2023-07-04T11:39:38.629Z,2.20
2023-07-04T11:42:45.717Z,1.40
2023-07-04T11:45:50.232Z,1.60
2023-07-04T11:48:55.555Z,1.50
2023-07-04T11:52:20.651Z,1.60
2023-07-04T11:55:33.706Z,1.60
2023-07-04T11:58:37.038Z,1.80
2023-07-04T12:02:04.864Z,1.80
2023-07-04T12:05:32.523Z,1.70
2023-07-04T12:08:51.609Z,1.90
2023-07-04T12:11:57.481Z,1.60
2023-07-04T12:19:04.600Z,2.10
2023-07-04T12:22:06.860Z,2.10
2023-07-04T12:25:19.544Z,1.80
2023-07-04T12:28:27.504Z,1.60
2023-07-04T12:35:10.856Z,1.70
2023-07-04T12:37:58.859Z,1.50
2023-07-04T12:41:04.776Z,1.30
2023-07-04T12:47:26.241Z,1.30
2023-07-04T12:50:31.501Z,1.60
2023-07-04T12:53:35.197Z,1.40
2023-07-04T12:56:42.415Z,1.70
2023-07-04T12:59:49.443Z,1.50
2023-07-04T13:02:52.746Z,1.70
2023-07-04T13:05:56.262Z,1.40
2023-07-04T13:09:00.430Z,1.50
2023-07-04T13:12:03.547Z,1.60
2023-07-04T13:15:12.832Z,1.70
2023-07-04T13:18:15.876Z,1.80
2023-07-04T13:21:27.454Z,1.50
2023-07-04T13:27:41.549Z,1.70
2023-07-04T13:32:58.853Z,1.50
2023-07-04T13:34:10.440Z,1.60
2023-07-04T13:37:13.525Z,1.50
2023-07-04T13:40:16.823Z,1.60
2023-07-04T13:46:25.590Z,1.70
2023-07-04T13:49:28.584Z,1.50
2023-07-04T13:52:33.702Z,1.50
2023-07-04T13:55:38.389Z,2.10
2023-07-04T13:58:41.694Z,1.70
2023-07-04T14:07:56.391Z,1.80
2023-07-04T14:11:08.848Z,1.60
2023-07-04T14:16:35.746Z,1.50
2023-07-04T14:18:31.874Z,1.60
2023-07-04T14:21:00.826Z,1.60
2023-07-04T14:24:07.163Z,1.70
2023-07-04T14:27:10.562Z,1.50
2023-07-04T14:30:14.116Z,1.70
2023-07-04T14:33:17.239Z,1.60
2023-07-04T14:36:20.392Z,1.60
2023-07-04T14:39:26.184Z,1.70
2023-07-04T14:42:31.746Z,1.80
2023-07-04T14:45:35.423Z,1.50
2023-07-04T14:48:39.308Z,2.00
2023-07-04T14:51:45.700Z,1.80
2023-07-04T14:54:48.882Z,1.90
2023-07-04T14:57:51.835Z,1.90
2023-07-04T15:01:01.407Z,1.60
2023-07-04T15:04:05.459Z,1.80
2023-07-04T15:07:08.487Z,1.70
2023-07-04T15:10:11.543Z,1.60
2023-07-04T15:13:14.698Z,1.50
2023-07-04T15:16:18.817Z,1.90
2023-07-04T15:19:25.996Z,2.00
2023-07-04T15:22:29.046Z,1.80
2023-07-04T15:25:32.100Z,1.70
2023-07-04T15:28:38.649Z,1.70
2023-07-04T15:31:41.739Z,1.40
2023-07-04T15:34:44.927Z,1.90
2023-07-04T15:37:48.031Z,2.00
2023-07-04T15:40:53.867Z,1.80
2023-07-04T15:43:57.000Z,1.60
2023-07-04T15:47:00.453Z,1.90
2023-07-04T15:50:03.656Z,1.80
2023-07-04T15:53:06.656Z,2.00
2023-07-04T15:56:12.949Z,1.90
2023-07-04T15:59:16.600Z,1.90
2023-07-04T16:02:19.654Z,2.10
2023-07-04T16:05:22.950Z,2.20
2023-07-04T16:08:27.540Z,2.20
2023-07-04T16:11:30.582Z,1.90
2023-07-04T16:14:33.524Z,1.90
2023-07-04T16:17:37.772Z,1.80
2023-07-04T16:20:45.639Z,2.00
2023-07-04T16:23:48.685Z,2.20
2023-07-04T16:26:51.925Z,2.00
2023-07-04T16:29:55.063Z,1.60
2023-07-04T16:32:58.072Z,2.20
2023-07-04T16:36:02.541Z,1.90
2023-07-04T16:39:05.512Z,1.60
2023-07-04T16:42:08.498Z,2.20
2023-07-04T16:45:11.526Z,1.90
2023-07-04T16:48:14.867Z,1.60
2023-07-04T16:51:17.805Z,2.00
2023-07-04T16:54:20.755Z,2.10
2023-07-04T16:57:23.744Z,2.20
2023-07-04T17:00:26.829Z,2.00
2023-07-04T17:03:31.505Z,2.00
2023-07-04T17:06:34.535Z,1.80
2023-07-04T17:09:37.516Z,1.80
2023-07-04T17:12:40.448Z,1.80
2023-07-04T17:15:43.500Z,1.90
2023-07-04T17:18:46.532Z,2.00
2023-07-04T17:21:49.891Z,2.30
2023-07-04T17:25:06.944Z,2.00
2023-07-04T17:28:16.403Z,2.20
2023-07-04T17:31:20.050Z,2.30
2023-07-04T17:34:24.495Z,2.20
2023-07-04T17:37:28.391Z,2.60
2023-07-04T17:40:32.432Z,2.20
2023-07-04T17:43:36.748Z,2.20
2023-07-04T17:46:40.023Z,2.00
2023-07-04T17:49:43.066Z,2.00
2023-07-04T17:52:47.242Z,2.00
2023-07-04T17:55:50.553Z,2.10
2023-07-04T17:58:54.946Z,2.10
2023-07-04T18:01:57.939Z,2.10
2023-07-04T18:05:00.921Z,2.30
2023-07-04T18:08:06.572Z,2.30
2023-07-04T18:11:22.752Z,2.50
2023-07-04T18:14:27.273Z,2.30
2023-07-04T18:17:31.291Z,2.10
2023-07-04T18:20:34.437Z,3.80
2023-07-04T18:23:37.710Z,6.90
2023-07-04T18:26:40.746Z,4.70
2023-07-04T18:29:43.708Z,5.20
2023-07-04T18:32:46.711Z,3.40
2023-07-04T18:35:50.381Z,2.90
2023-07-04T18:38:53.670Z,3.20
2023-07-04T18:41:56.703Z,3.50
2023-07-04T18:44:59.595Z,3.70
2023-07-04T18:48:02.696Z,4.60
2023-07-04T18:51:20.534Z,4.40
2023-07-04T18:57:29.306Z,3.50
2023-07-04T19:00:32.288Z,3.50
2023-07-04T19:03:35.754Z,3.30
2023-07-04T19:06:41.067Z,3.10
2023-07-04T19:09:44.242Z,3.50
2023-07-04T19:12:47.276Z,3.70
2023-07-04T19:15:59.749Z,3.10
2023-07-04T19:19:02.733Z,3.30
2023-07-04T19:22:08.444Z,3.40
2023-07-04T19:25:11.539Z,2.50
2023-07-04T19:28:17.125Z,3.20
2023-07-04T19:31:20.384Z,3.40
2023-07-04T19:34:24.956Z,4.90
2023-07-04T19:37:27.949Z,4.60
2023-07-04T19:40:30.872Z,4.70
2023-07-04T19:43:33.892Z,4.90
2023-07-04T19:46:37.086Z,3.90
2023-07-04T19:49:40.635Z,3.70
2023-07-04T19:52:43.727Z,3.80
2023-07-04T19:55:46.607Z,3.30
2023-07-04T19:58:51.194Z,3.20
2023-07-04T20:01:54.221Z,3.80
2023-07-04T20:04:57.324Z,3.80
2023-07-04T20:08:01.357Z,3.60
2023-07-04T20:11:04.691Z,3.40
2023-07-04T20:14:08.593Z,3.40
2023-07-04T20:17:11.557Z,3.80
2023-07-04T20:20:14.622Z,4.20
2023-07-04T20:23:17.789Z,4.20
2023-07-04T20:26:20.970Z,4.10
2023-07-04T20:29:24.102Z,4.20
2023-07-04T20:32:27.122Z,4.20
2023-07-04T20:35:30.873Z,4.10
2023-07-04T20:38:36.225Z,4.40
2023-07-04T20:41:39.142Z,5.10
2023-07-04T20:44:42.171Z,5.20
2023-07-04T20:47:45.279Z,4.80
2023-07-04T20:50:50.114Z,5.70
2023-07-04T20:53:53.385Z,5.30
2023-07-04T20:56:56.369Z,5.90
2023-07-04T20:59:59.368Z,6.60
2023-07-04T21:03:02.338Z,5.90
2023-07-04T21:06:06.601Z,5.50
2023-07-04T21:09:20.077Z,5.50
2023-07-04T21:12:23.264Z,10.00
2023-07-04T21:15:28.802Z,6.30
2023-07-04T21:18:33.662Z,5.80
2023-07-04T21:21:37.164Z,5.60
2023-07-04T21:24:40.076Z,5.70
2023-07-04T21:27:43.809Z,5.40
2023-07-04T21:30:49.274Z,5.50
2023-07-04T21:33:55.559Z,5.30
2023-07-04T21:36:58.535Z,5.90
2023-07-04T21:40:01.678Z,5.00
2023-07-04T21:43:06.241Z,5.30
2023-07-04T21:46:10.832Z,5.40
2023-07-04T21:49:13.774Z,5.40
2023-07-04T21:52:17.369Z,5.40
2023-07-04T21:55:20.373Z,4.70
2023-07-04T21:58:24.261Z,5.60
2023-07-04T22:01:27.338Z,4.70
2023-07-04T22:04:30.798Z,4.70
2023-07-04T22:07:33.839Z,3.90
2023-07-04T22:10:36.838Z,4.20
2023-07-04T22:13:43.446Z,4.90
2023-07-04T22:16:46.482Z,4.10
2023-07-04T22:19:49.609Z,3.90
2023-07-04T22:22:52.689Z,4.20
2023-07-04T22:25:56.446Z,4.50
2023-07-04T22:28:59.701Z,4.10
2023-07-04T22:32:03.120Z,4.10
2023-07-04T22:35:07.543Z,3.70
2023-07-04T22:38:10.531Z,4.10
2023-07-04T22:41:13.478Z,4.40
2023-07-04T22:44:17.271Z,4.70
2023-07-04T22:47:20.246Z,4.50
2023-07-04T22:50:23.287Z,5.10
2023-07-04T22:53:26.696Z,4.40
2023-07-04T22:56:29.686Z,4.60
2023-07-04T22:59:32.587Z,4.70
2023-07-04T23:02:35.836Z,4.30
2023-07-04T23:05:42.155Z,4.80
2023-07-04T23:08:45.298Z,4.70
2023-07-04T23:11:48.227Z,4.80
2023-07-04T23:14:51.184Z,4.60
2023-07-04T23:17:55.503Z,4.60
2023-07-04T23:20:58.562Z,5.30
2023-07-04T23:24:02.084Z,5.00
2023-07-04T23:27:05.683Z,5.60
2023-07-04T23:30:09.083Z,5.20
2023-07-04T23:33:11.984Z,5.30
2023-07-04T23:36:17.938Z,5.70
2023-07-04T23:39:20.866Z,5.30
2023-07-04T23:42:23.964Z,5.20
2023-07-04T23:45:27.073Z,5.60
2023-07-04T23:48:30.230Z,5.50
2023-07-04T23:51:33.143Z,5.70
2023-07-04T23:54:36.090Z,6.00
2023-07-04T23:57:39.012Z,5.40
